Airfield :
LOGIN :

Register | Disclaimer

   EN    FR    IT 

 










Legend :    VFR   Marginal VFR   IFR   Intensive IFR   Very Intensive IFR
Visi :
Ceiling :
>= 8 km
>= 3000ft
5 to 8 km
1000 to 3000 ft
1500m to 5 km
500 to 1000 ft
800 to 1500m
200 to 500 ft
< 800m
< 200 ft
Symbols :   Thunderstorms  Fog  Heavy snow  Heavy precipitations  Wind > 20 kt
SIGMETs :     Misc.  Thunderstorms  Icing  Turbulence  Mountain Waves  Volcanic Ashes







- Airport Elevation : 424 ft
- IATA code : QGY


LHPR - Györ Per

CURRENT METAR :
  • 190345Z AUTO 15009KT 5000 BR FEW037 M01/M01 Q1027 RMK WHT

EXPIRED METARs :
  • 190315Z AUTO 15008KT 7000 OVC037 01/00 Q1027 RMK WHT
  • 190245Z AUTO 12005KT 5000 BR OVC037 00/00 Q1027 RMK WHT
  • 190215Z AUTO 10003KT 4400 BR OVC036 00/00 Q1027 RMK GRN
  • 190145Z AUTO 10005KT 4000 BR OVC035 00/00 Q1028 RMK GRN
  • 190115Z AUTO 11003KT 4600 BR OVC036 00/00 Q1028 RMK GRN

Expired Forecast.
No reported NOTAMs for that airfield.



MET'MAP, your aeronautical weather chart ! - Copyright ORBIFLY December 2007 - Disclaimer

ORBIFLY MET'MAP TEAM :

Programming & Development : Alexandra Zaïnal
Concept & Development : Baudouin d'Aumeries
Co-Development & Prog : Marc-Olivier Méhu
Technical & hardware support : Manuel Goepfert

Contact : metmap@orbifly.com




SOURCES & CREDITS :

   NOAA